createdAt,value
2023-02-15T00:02:04.592Z,18.15
2023-02-15T00:04:50.152Z,15.57
2023-02-15T00:07:19.911Z,17.55
2023-02-15T00:09:48.148Z,14.57
2023-02-15T00:12:16.646Z,14.30
2023-02-15T00:14:43.929Z,16.15
2023-02-15T00:17:11.567Z,17.00
2023-02-15T00:19:38.905Z,16.52
2023-02-15T00:22:06.537Z,18.20
2023-02-15T00:24:34.051Z,18.15
2023-02-15T00:27:01.625Z,21.88
2023-02-15T00:29:29.235Z,19.42
2023-02-15T00:31:56.841Z,19.75
2023-02-15T00:34:26.829Z,16.95
2023-02-15T00:36:54.641Z,17.83
2023-02-15T00:39:22.412Z,17.13
2023-02-15T00:41:50.052Z,19.38
2023-02-15T00:44:18.766Z,17.42
2023-02-15T00:46:46.380Z,17.90
2023-02-15T00:49:13.658Z,19.23
2023-02-15T00:51:41.240Z,16.00
2023-02-15T00:54:09.016Z,18.02
2023-02-15T00:56:36.626Z,17.63
2023-02-15T00:59:04.747Z,17.60
2023-02-15T01:01:32.468Z,17.38
2023-02-15T01:03:59.806Z,15.50
2023-02-15T01:06:30.618Z,19.52
2023-02-15T01:08:57.856Z,22.63
2023-02-15T01:11:25.539Z,26.25
2023-02-15T01:13:58.641Z,21.00
2023-02-15T01:16:28.634Z,23.48
2023-02-15T01:18:56.498Z,24.67
2023-02-15T01:21:26.453Z,25.63
2023-02-15T01:23:53.807Z,23.25
2023-02-15T01:26:21.414Z,27.63
2023-02-15T01:28:49.108Z,22.27
2023-02-15T01:31:20.578Z,26.63
2023-02-15T01:33:49.273Z,28.27
2023-02-15T01:36:18.513Z,26.85
2023-02-15T01:38:46.219Z,31.30
2023-02-15T01:41:27.409Z,30.48
2023-02-15T01:43:57.968Z,34.40
2023-02-15T01:46:36.577Z,30.42
2023-02-15T01:49:12.444Z,30.52
2023-02-15T01:51:43.044Z,32.65
2023-02-15T01:54:10.895Z,29.33
2023-02-15T01:56:40.803Z,27.02
2023-02-15T01:59:15.082Z,27.17
2023-02-15T02:01:43.244Z,29.60
2023-02-15T02:04:17.518Z,31.65
2023-02-15T02:06:49.046Z,31.65
2023-02-15T02:09:16.728Z,28.55
2023-02-15T02:11:48.524Z,28.92
2023-02-15T02:14:17.368Z,32.70
2023-02-15T02:17:14.501Z,32.47
2023-02-15T02:19:41.660Z,34.30
2023-02-15T02:22:21.280Z,34.53
2023-02-15T02:25:25.916Z,33.92
2023-02-15T02:28:15.306Z,29.42
2023-02-15T02:31:20.758Z,33.33
2023-02-15T02:34:00.478Z,35.90
2023-02-15T02:36:36.764Z,38.10
2023-02-15T02:39:10.251Z,38.55
2023-02-15T02:42:16.409Z,33.60
2023-02-15T02:45:07.055Z,33.50
2023-02-15T02:48:01.083Z,39.42
2023-02-15T02:50:31.004Z,40.30
2023-02-15T02:53:00.260Z,38.45
2023-02-15T02:56:21.402Z,33.80
2023-02-15T02:59:01.962Z,35.80
2023-02-15T03:01:53.379Z,38.25
2023-02-15T03:04:26.086Z,38.38
2023-02-15T03:07:04.972Z,34.97
2023-02-15T03:09:42.701Z,36.72
2023-02-15T03:12:25.205Z,38.50
2023-02-15T03:15:16.000Z,40.75
2023-02-15T03:17:48.160Z,35.70
2023-02-15T03:20:32.784Z,33.10
2023-02-15T03:23:07.478Z,34.83
2023-02-15T03:25:44.886Z,30.65
2023-02-15T03:28:26.489Z,30.45
2023-02-15T03:30:57.014Z,36.47
2023-02-15T03:33:27.473Z,30.48
2023-02-15T03:35:58.010Z,33.40
2023-02-15T03:38:50.695Z,31.83
2023-02-15T03:41:20.869Z,35.80
2023-02-15T03:44:11.284Z,32.85
2023-02-15T03:47:01.980Z,36.47
2023-02-15T03:49:38.160Z,36.00
2023-02-15T03:52:08.979Z,33.35
2023-02-15T03:54:43.339Z,32.57
2023-02-15T03:57:45.239Z,36.33
2023-02-15T04:00:53.187Z,33.28
2023-02-15T04:03:25.883Z,29.60
2023-02-15T04:05:53.536Z,36.47
2023-02-15T04:08:20.759Z,33.55
2023-02-15T04:10:54.108Z,36.22
2023-02-15T04:13:40.991Z,32.35
2023-02-15T04:16:08.929Z,31.20
2023-02-15T04:19:01.037Z,29.90
2023-02-15T04:21:50.028Z,34.05
2023-02-15T04:24:36.563Z,30.17
2023-02-15T04:27:05.373Z,29.00
2023-02-15T04:29:32.973Z,28.60
2023-02-15T04:32:02.587Z,26.38
2023-02-15T04:34:29.898Z,29.13
2023-02-15T04:36:57.493Z,31.05
2023-02-15T04:39:24.780Z,29.08
2023-02-15T04:41:52.367Z,33.35
2023-02-15T04:44:19.704Z,28.02
2023-02-15T04:46:47.376Z,27.77
2023-02-15T04:49:14.618Z,29.30
2023-02-15T04:51:42.172Z,29.80
2023-02-15T04:54:09.422Z,27.60
2023-02-15T04:56:38.910Z,27.75
2023-02-15T04:59:06.410Z,27.48
2023-02-15T05:01:34.409Z,25.25
2023-02-15T05:04:02.094Z,24.70
2023-02-15T05:06:30.247Z,23.67
2023-02-15T05:09:00.226Z,24.45
2023-02-15T05:11:28.340Z,26.17
2023-02-15T05:13:55.640Z,25.88
2023-02-15T05:16:23.382Z,28.35
2023-02-15T05:18:50.643Z,21.10
2023-02-15T05:21:18.238Z,25.95
2023-02-15T05:23:45.713Z,25.48
2023-02-15T05:26:37.249Z,27.17
2023-02-15T05:29:04.612Z,24.30
2023-02-15T05:31:33.068Z,28.27
2023-02-15T05:34:00.467Z,26.15
2023-02-15T05:36:29.295Z,28.63
2023-02-15T05:38:57.023Z,24.25
2023-02-15T05:41:25.270Z,28.27
2023-02-15T05:43:52.492Z,26.48
2023-02-15T05:46:20.039Z,23.10
2023-02-15T05:48:47.297Z,22.83
2023-02-15T05:51:16.090Z,27.58
2023-02-15T05:53:43.421Z,27.20
2023-02-15T05:56:12.025Z,26.17
2023-02-15T05:58:40.879Z,30.35
2023-02-15T06:01:26.731Z,25.45
2023-02-15T06:03:55.148Z,27.33
2023-02-15T06:06:23.561Z,23.73
2023-02-15T06:08:50.824Z,26.10
2023-02-15T06:11:18.367Z,26.58
2023-02-15T06:13:45.673Z,27.38
2023-02-15T06:16:13.391Z,25.75
2023-02-15T06:18:40.729Z,24.90
2023-02-15T06:21:08.276Z,22.80
2023-02-15T06:23:35.503Z,25.80
2023-02-15T06:26:03.428Z,23.08
2023-02-15T06:28:30.968Z,25.98
2023-02-15T06:30:58.684Z,28.80
2023-02-15T06:33:26.087Z,23.48
2023-02-15T06:35:53.702Z,26.48
2023-02-15T06:38:20.944Z,23.33
2023-02-15T06:40:48.537Z,29.33
2023-02-15T06:43:15.742Z,26.83
2023-02-15T06:45:43.492Z,28.40
2023-02-15T06:48:12.193Z,26.48
2023-02-15T06:50:39.859Z,26.52
2023-02-15T06:53:07.178Z,29.50
2023-02-15T06:55:34.717Z,28.42
2023-02-15T06:58:01.934Z,27.80
2023-02-15T07:00:29.567Z,24.30
2023-02-15T07:03:00.325Z,27.63
2023-02-15T07:05:32.054Z,28.77
2023-02-15T07:08:00.702Z,24.90
2023-02-15T07:10:28.833Z,24.90
2023-02-15T07:12:56.094Z,23.70
2023-02-15T07:15:23.997Z,32.25
2023-02-15T07:17:51.909Z,29.15
2023-02-15T07:20:22.566Z,23.92
2023-02-15T07:22:51.298Z,25.48
2023-02-15T07:25:19.484Z,31.38
2023-02-15T07:27:46.926Z,24.30
2023-02-15T07:30:17.628Z,23.73
2023-02-15T07:33:05.511Z,26.73
2023-02-15T07:35:34.569Z,22.98
2023-02-15T07:38:02.323Z,25.73
2023-02-15T07:40:29.897Z,22.90
2023-02-15T07:42:59.011Z,25.25
2023-02-15T07:45:26.539Z,22.60
2023-02-15T07:47:53.900Z,22.20
2023-02-15T07:50:21.431Z,26.48
2023-02-15T07:52:48.660Z,20.70
2023-02-15T07:55:16.427Z,26.35
2023-02-15T07:57:49.142Z,26.15
2023-02-15T08:00:19.492Z,23.38
2023-02-15T08:03:11.153Z,29.05
2023-02-15T08:05:39.736Z,24.80
2023-02-15T08:08:07.440Z,25.10
2023-02-15T08:10:55.533Z,24.58
2023-02-15T08:13:22.734Z,23.33
2023-02-15T08:15:51.497Z,23.48
2023-02-15T08:18:18.784Z,25.35
2023-02-15T08:20:52.182Z,27.35
2023-02-15T08:23:19.438Z,30.23
2023-02-15T08:25:46.934Z,26.13
2023-02-15T08:28:14.204Z,25.58
2023-02-15T08:30:41.771Z,25.15
2023-02-15T08:33:10.953Z,24.77
2023-02-15T08:35:38.483Z,26.17
2023-02-15T08:38:05.685Z,25.20
2023-02-15T08:40:33.184Z,26.80
2023-02-15T08:43:00.363Z,23.75
2023-02-15T08:45:28.250Z,25.92
2023-02-15T08:47:55.529Z,28.85
2023-02-15T08:50:23.040Z,23.75
2023-02-15T08:52:50.244Z,20.23
2023-02-15T08:55:17.746Z,26.23
2023-02-15T08:57:46.520Z,24.05
2023-02-15T09:00:14.672Z,27.17
2023-02-15T09:02:42.041Z,24.17
2023-02-15T09:05:10.176Z,25.60
2023-02-15T09:07:37.371Z,29.90
2023-02-15T09:10:05.486Z,26.80
2023-02-15T09:12:32.708Z,23.48
2023-02-15T09:15:00.306Z,26.63
2023-02-15T09:17:27.709Z,24.92
2023-02-15T09:19:55.275Z,25.88
2023-02-15T09:22:22.567Z,22.33
2023-02-15T09:24:50.200Z,26.73
2023-02-15T09:27:17.466Z,27.50
2023-02-15T09:29:44.982Z,23.48
2023-02-15T09:32:15.451Z,27.25
2023-02-15T09:34:42.975Z,22.42
2023-02-15T09:37:10.216Z,23.20
2023-02-15T09:39:42.088Z,23.77
2023-02-15T09:45:34.411Z,18.23
2023-02-15T09:48:24.788Z,23.90
2023-02-15T09:51:01.590Z,20.77
2023-02-15T09:53:54.644Z,26.52
2023-02-15T09:56:44.336Z,23.63
2023-02-15T09:59:27.681Z,22.42
2023-02-15T10:02:23.834Z,24.90
2023-02-15T10:05:15.336Z,23.65
2023-02-15T10:08:00.942Z,21.17
2023-02-15T10:10:30.883Z,22.00
2023-02-15T10:13:17.610Z,26.42
2023-02-15T10:15:59.874Z,24.98
2023-02-15T10:18:33.158Z,24.95
2023-02-15T10:21:11.147Z,25.20
2023-02-15T10:23:58.359Z,22.75
2023-02-15T10:26:45.569Z,23.95
2023-02-15T10:29:38.377Z,24.27
2023-02-15T10:32:24.602Z,26.05
2023-02-15T10:35:02.220Z,27.65
2023-02-15T10:37:41.377Z,24.92
2023-02-15T10:40:11.829Z,28.02
2023-02-15T10:42:45.016Z,27.73
2023-02-15T10:45:40.191Z,22.70
2023-02-15T10:48:12.868Z,22.73
2023-02-15T10:50:48.248Z,28.50
2023-02-15T10:53:40.896Z,24.55
2023-02-15T10:56:26.014Z,27.13
2023-02-15T10:59:10.054Z,28.52
2023-02-15T11:01:52.749Z,31.15
2023-02-15T11:04:44.742Z,23.98
2023-02-15T11:07:36.425Z,26.52
2023-02-15T11:10:21.015Z,30.08
2023-02-15T11:12:50.834Z,28.02
2023-02-15T11:15:26.404Z,28.90
2023-02-15T11:17:59.948Z,28.95
2023-02-15T11:20:34.638Z,28.45
2023-02-15T11:23:03.658Z,27.80
2023-02-15T11:25:34.863Z,26.08
2023-02-15T11:28:07.313Z,26.52
2023-02-15T11:30:53.187Z,26.08
2023-02-15T11:33:30.366Z,28.40
2023-02-15T11:36:15.317Z,28.83
2023-02-15T11:38:44.792Z,28.85
2023-02-15T11:41:16.134Z,29.27
2023-02-15T11:43:55.386Z,27.52
2023-02-15T11:46:22.964Z,31.98
2023-02-15T11:48:50.777Z,26.88
2023-02-15T11:51:24.385Z,25.90
2023-02-15T11:53:52.896Z,28.65
2023-02-15T11:56:23.686Z,25.55
2023-02-15T11:59:04.562Z,27.57
2023-02-15T12:01:35.717Z,27.77
2023-02-15T12:04:23.651Z,32.65
2023-02-15T12:07:02.252Z,29.20
2023-02-15T12:09:46.836Z,31.33
2023-02-15T12:12:26.315Z,30.52
2023-02-15T12:15:06.480Z,31.05
2023-02-15T12:17:39.237Z,29.58
2023-02-15T12:20:15.964Z,32.83
2023-02-15T12:23:04.253Z,32.38
2023-02-15T12:25:40.802Z,34.75
2023-02-15T12:28:38.985Z,31.63
2023-02-15T12:31:21.754Z,31.05
2023-02-15T12:33:53.763Z,34.60
2023-02-15T12:36:25.183Z,32.38
2023-02-15T12:39:13.682Z,30.63
2023-02-15T12:42:06.048Z,29.08
2023-02-15T12:44:38.199Z,29.90
2023-02-15T12:47:17.567Z,28.90
2023-02-15T12:49:48.083Z,27.00
2023-02-15T12:52:18.768Z,23.40
2023-02-15T12:54:46.074Z,27.58
2023-02-15T12:57:15.306Z,29.30
2023-02-15T12:59:59.453Z,29.73
2023-02-15T13:02:51.012Z,28.58
2023-02-15T13:05:21.361Z,30.40
2023-02-15T13:07:57.076Z,25.02
2023-02-15T13:10:35.471Z,27.27
2023-02-15T13:13:10.299Z,29.50
2023-02-15T13:15:41.400Z,27.50
2023-02-15T13:18:40.642Z,27.90
2023-02-15T13:21:14.268Z,30.98
2023-02-15T13:24:11.761Z,28.65
2023-02-15T13:26:39.400Z,34.05
2023-02-15T13:29:13.129Z,30.45
2023-02-15T13:31:41.125Z,31.40
2023-02-15T13:34:21.955Z,29.52
2023-02-15T13:37:44.644Z,32.83
2023-02-15T13:40:25.764Z,29.77
2023-02-15T13:43:37.932Z,27.42
2023-02-15T13:46:14.398Z,27.55
2023-02-15T13:48:50.229Z,29.52
2023-02-15T13:51:47.818Z,32.55
2023-02-15T13:54:45.846Z,28.80
2023-02-15T13:57:37.446Z,32.45
2023-02-15T14:00:26.981Z,29.60
2023-02-15T14:03:20.024Z,29.85
2023-02-15T14:06:09.044Z,34.25
2023-02-15T14:08:58.068Z,33.90
2023-02-15T14:11:40.555Z,36.70
2023-02-15T14:14:43.685Z,29.92
2023-02-15T14:17:42.123Z,36.97
2023-02-15T14:20:20.751Z,37.70
2023-02-15T14:23:30.688Z,39.88
2023-02-15T14:26:10.992Z,37.25
2023-02-15T14:28:50.379Z,32.33
2023-02-15T14:31:22.561Z,35.70
2023-02-15T14:36:31.320Z,34.55
2023-02-15T14:39:01.380Z,34.53
2023-02-15T14:41:54.649Z,37.28
2023-02-15T14:44:32.176Z,32.85
2023-02-15T14:47:10.782Z,37.22
2023-02-15T14:49:39.980Z,40.17
2023-02-15T14:52:09.641Z,38.70
2023-02-15T14:54:36.862Z,43.67
2023-02-15T14:57:04.504Z,37.22
2023-02-15T14:59:50.496Z,39.05
2023-02-15T15:02:25.504Z,39.83
2023-02-15T15:04:52.743Z,39.58
2023-02-15T15:07:28.152Z,40.08
2023-02-15T15:10:21.771Z,47.78
2023-02-15T15:12:59.204Z,49.72
2023-02-15T15:15:32.344Z,47.08
2023-02-15T15:18:07.023Z,49.15
2023-02-15T15:20:52.736Z,48.13
2023-02-15T15:23:20.184Z,51.78
2023-02-15T15:25:52.963Z,45.83
2023-02-15T15:28:35.734Z,51.72
2023-02-15T15:31:21.263Z,49.17
2023-02-15T15:34:33.409Z,54.72
2023-02-15T15:37:12.845Z,57.07
2023-02-15T15:40:19.241Z,51.50
2023-02-15T15:42:53.148Z,52.10
2023-02-15T15:45:46.647Z,63.83
2023-02-15T15:48:34.556Z,56.10
2023-02-15T15:51:07.210Z,56.58
2023-02-15T15:53:42.276Z,54.33
2023-02-15T15:56:16.499Z,58.50
2023-02-15T15:58:54.323Z,56.58
2023-02-15T16:01:30.889Z,60.00
2023-02-15T16:04:00.043Z,57.47
2023-02-15T16:06:36.913Z,56.13
2023-02-15T16:09:28.098Z,54.42
2023-02-15T16:12:06.171Z,55.85
2023-02-15T16:14:37.729Z,61.55
2023-02-15T16:17:18.840Z,59.67
2023-02-15T16:19:46.624Z,62.45
2023-02-15T16:22:23.085Z,59.30
2023-02-15T16:25:21.217Z,56.45
2023-02-15T16:27:49.803Z,59.15
2023-02-15T16:30:25.648Z,60.95
2023-02-15T16:33:17.806Z,60.60
2023-02-15T16:35:54.093Z,60.03
2023-02-15T16:38:44.409Z,61.75
2023-02-15T16:41:31.313Z,64.57
2023-02-15T16:44:04.461Z,66.13
2023-02-15T16:46:43.895Z,60.17
2023-02-15T16:49:22.139Z,61.72
2023-02-15T16:51:59.162Z,61.92
2023-02-15T16:54:28.174Z,70.05
2023-02-15T16:56:55.758Z,66.50
2023-02-15T16:59:23.268Z,65.15
2023-02-15T17:01:52.991Z,70.93
2023-02-15T17:04:23.630Z,63.83
2023-02-15T17:07:13.922Z,74.93
2023-02-15T17:09:51.277Z,75.43
2023-02-15T17:12:47.808Z,73.60
2023-02-15T17:15:40.116Z,78.82
2023-02-15T17:18:18.843Z,75.60
2023-02-15T17:20:49.016Z,81.63
2023-02-15T17:23:36.960Z,76.45
2023-02-15T17:26:17.844Z,85.72
2023-02-15T17:29:20.623Z,87.05
2023-02-15T17:31:51.254Z,84.72
2023-02-15T17:34:45.515Z,80.05
2023-02-15T17:37:23.724Z,77.88
2023-02-15T17:39:51.307Z,80.05
2023-02-15T17:42:19.001Z,87.00
2023-02-15T17:44:46.335Z,78.93
2023-02-15T17:47:20.700Z,79.40
2023-02-15T17:49:50.256Z,84.32
2023-02-15T17:52:18.634Z,84.80
2023-02-15T17:55:04.634Z,82.75
2023-02-15T17:57:32.329Z,88.05
2023-02-15T18:00:18.004Z,91.60
2023-02-15T18:03:05.515Z,85.75
2023-02-15T18:05:51.561Z,85.03
2023-02-15T18:08:43.258Z,88.50
2023-02-15T18:11:29.575Z,89.90
2023-02-15T18:14:01.608Z,88.05
2023-02-15T18:16:36.259Z,81.15
2023-02-15T18:19:06.134Z,82.45
2023-02-15T18:21:33.900Z,88.68
2023-02-15T18:24:01.744Z,83.43
2023-02-15T18:26:29.954Z,83.53
2023-02-15T18:28:57.624Z,84.63
2023-02-15T18:31:25.180Z,81.47
2023-02-15T18:33:59.695Z,90.88
2023-02-15T18:36:32.858Z,82.75
2023-02-15T18:39:04.708Z,82.70
2023-02-15T18:41:34.306Z,86.25
2023-02-15T18:44:01.876Z,84.65
2023-02-15T18:46:29.188Z,88.63
2023-02-15T18:48:56.769Z,89.85
2023-02-15T18:51:24.331Z,82.45
2023-02-15T18:53:53.348Z,88.68
2023-02-15T18:56:22.831Z,84.65
2023-02-15T18:58:50.424Z,84.38
2023-02-15T19:01:21.726Z,84.10
2023-02-15T19:03:51.425Z,85.13
2023-02-15T19:06:21.730Z,83.13
2023-02-15T19:08:52.303Z,78.63
2023-02-15T19:11:23.294Z,81.00
2023-02-15T19:13:52.538Z,88.00
2023-02-15T19:16:31.776Z,78.80
2023-02-15T19:18:59.778Z,73.93
2023-02-15T19:21:31.961Z,81.45
2023-02-15T19:24:05.031Z,81.07
2023-02-15T19:26:44.825Z,76.95
2023-02-15T19:29:15.648Z,79.28
2023-02-15T19:31:43.097Z,78.63
2023-02-15T19:34:17.030Z,78.75
2023-02-15T19:36:47.327Z,75.32
2023-02-15T19:39:30.347Z,87.05
2023-02-15T19:41:57.620Z,74.50
2023-02-15T19:44:25.297Z,79.65
2023-02-15T19:46:52.578Z,76.10
2023-02-15T19:49:20.182Z,82.68
2023-02-15T19:51:47.817Z,81.57
2023-02-15T19:54:35.017Z,79.25
2023-02-15T19:57:02.374Z,80.72
2023-02-15T19:59:32.904Z,82.68
2023-02-15T20:02:00.466Z,83.05
2023-02-15T20:04:28.376Z,80.70
2023-02-15T20:06:57.965Z,87.68
2023-02-15T20:09:29.528Z,89.82
2023-02-15T20:11:56.877Z,82.35
2023-02-15T20:14:24.971Z,86.65
2023-02-15T20:16:52.346Z,82.80
2023-02-15T20:19:19.615Z,78.18
2023-02-15T20:21:54.662Z,81.05
2023-02-15T20:24:23.955Z,83.97
2023-02-15T20:26:51.585Z,81.13
2023-02-15T20:29:19.394Z,79.07
2023-02-15T20:31:47.060Z,83.72
2023-02-15T20:34:14.474Z,85.47
2023-02-15T20:36:42.236Z,81.43
2023-02-15T20:39:16.629Z,84.03
2023-02-15T20:41:47.992Z,82.32
2023-02-15T20:44:31.271Z,86.43
2023-02-15T20:47:00.381Z,93.63
2023-02-15T20:49:27.935Z,92.43
2023-02-15T20:51:56.699Z,93.28
2023-02-15T20:54:26.784Z,82.25
2023-02-15T20:56:54.542Z,96.10
2023-02-15T20:59:25.196Z,92.22
2023-02-15T21:01:58.528Z,88.20
2023-02-15T21:04:31.607Z,96.32
2023-02-15T21:07:02.663Z,94.78
2023-02-15T21:09:31.815Z,92.43
2023-02-15T21:12:02.755Z,91.32
2023-02-15T21:14:30.094Z,101.28
2023-02-15T21:16:57.637Z,94.97
2023-02-15T21:19:25.195Z,93.50
2023-02-15T21:21:53.721Z,93.50
2023-02-15T21:24:25.991Z,98.55
2023-02-15T21:26:55.347Z,102.60
2023-02-15T21:29:25.726Z,93.65
2023-02-15T21:31:53.331Z,93.18
2023-02-15T21:34:21.206Z,98.22
2023-02-15T21:36:50.743Z,102.22
2023-02-15T21:39:19.876Z,101.75
2023-02-15T21:42:07.433Z,92.28
2023-02-15T21:44:53.713Z,109.15
2023-02-15T21:47:45.478Z,99.32
2023-02-15T21:50:35.526Z,98.22
2023-02-15T21:53:05.133Z,107.57
2023-02-15T21:55:33.303Z,106.78
2023-02-15T21:58:01.461Z,106.95
2023-02-15T22:00:29.952Z,105.43
2023-02-15T22:03:00.967Z,109.85
2023-02-15T22:05:33.408Z,108.70
2023-02-15T22:08:01.162Z,111.63
2023-02-15T22:10:33.005Z,103.32
2023-02-15T22:13:02.176Z,112.03
2023-02-15T22:15:35.812Z,107.88
2023-02-15T22:18:04.448Z,105.43
2023-02-15T22:20:32.106Z,105.90
2023-02-15T22:22:59.631Z,108.15
2023-02-15T22:25:27.335Z,113.75
2023-02-15T22:27:55.410Z,103.07
2023-02-15T22:30:27.254Z,115.85
2023-02-15T22:32:56.491Z,109.13
2023-02-15T22:35:27.490Z,112.72
2023-02-15T22:37:56.307Z,107.60
2023-02-15T22:40:30.005Z,110.43
2023-02-15T22:42:59.817Z,112.35
2023-02-15T22:45:30.488Z,114.05
2023-02-15T22:48:00.369Z,110.18
2023-02-15T22:50:33.035Z,108.47
2023-02-15T22:53:02.452Z,110.32
2023-02-15T22:55:34.075Z,116.18
2023-02-15T22:58:02.655Z,110.35
2023-02-15T23:00:35.492Z,117.95
2023-02-15T23:03:31.333Z,111.15
2023-02-15T23:05:58.800Z,106.10
2023-02-15T23:08:26.304Z,116.88
2023-02-15T23:10:56.185Z,107.72
2023-02-15T23:13:29.321Z,114.82
2023-02-15T23:15:59.712Z,113.07
2023-02-15T23:18:42.245Z,112.68
2023-02-15T23:23:47.593Z,110.95
2023-02-15T23:26:17.827Z,118.38
2023-02-15T23:28:46.039Z,119.55
2023-02-15T23:31:24.102Z,118.90
2023-02-15T23:33:53.008Z,106.90
2023-02-15T23:36:28.663Z,107.88
2023-02-15T23:38:58.501Z,110.95
2023-02-15T23:41:29.143Z,102.57
2023-02-15T23:44:00.644Z,109.45
2023-02-15T23:46:38.801Z,86.88
2023-02-15T23:49:15.042Z,107.68
2023-02-15T23:51:48.074Z,108.40
2023-02-15T23:54:17.894Z,102.05
2023-02-15T23:56:48.451Z,101.40
2023-02-15T23:59:22.656Z,108.30
